sensor_id;sensor_type;location;lat;lon;timestamp;P1;durP1;ratioP1;P2;durP2;ratioP2
72132;SDS011;60008;50.826;6.896;2023-11-21T00:02:16;13.27;;;5.17;;
72132;SDS011;60008;50.826;6.896;2023-11-21T00:05:01;10.82;;;5.13;;
72132;SDS011;60008;50.826;6.896;2023-11-21T00:07:48;11.85;;;5.28;;
72132;SDS011;60008;50.826;6.896;2023-11-21T00:10:34;11.23;;;4.88;;
72132;SDS011;60008;50.826;6.896;2023-11-21T00:13:19;13.50;;;5.70;;
72132;SDS011;60008;50.826;6.896;2023-11-21T00:16:04;11.67;;;4.83;;
72132;SDS011;60008;50.826;6.896;2023-11-21T00:18:49;17.23;;;5.32;;
72132;SDS011;60008;50.826;6.896;2023-11-21T00:21:36;11.10;;;4.75;;
72132;SDS011;60008;50.826;6.896;2023-11-21T00:24:20;11.77;;;4.60;;
72132;SDS011;60008;50.826;6.896;2023-11-21T00:27:05;13.30;;;4.63;;
72132;SDS011;60008;50.826;6.896;2023-11-21T00:29:50;8.87;;;4.57;;
72132;SDS011;60008;50.826;6.896;2023-11-21T00:32:36;12.60;;;4.63;;
72132;SDS011;60008;50.826;6.896;2023-11-21T00:35:22;11.75;;;4.70;;
72132;SDS011;60008;50.826;6.896;2023-11-21T00:38:07;13.95;;;5.57;;
72132;SDS011;60008;50.826;6.896;2023-11-21T00:40:53;16.95;;;6.38;;
72132;SDS011;60008;50.826;6.896;2023-11-21T00:43:41;13.27;;;6.03;;
72132;SDS011;60008;50.826;6.896;2023-11-21T00:46:26;15.25;;;6.47;;
72132;SDS011;60008;50.826;6.896;2023-11-21T00:49:14;14.30;;;6.32;;
72132;SDS011;60008;50.826;6.896;2023-11-21T00:51:59;14.02;;;6.72;;
72132;SDS011;60008;50.826;6.896;2023-11-21T00:54:45;14.20;;;6.90;;
72132;SDS011;60008;50.826;6.896;2023-11-21T00:57:31;17.40;;;6.80;;
72132;SDS011;60008;50.826;6.896;2023-11-21T01:00:16;14.93;;;7.10;;
72132;SDS011;60008;50.826;6.896;2023-11-21T01:03:02;13.98;;;6.35;;
72132;SDS011;60008;50.826;6.896;2023-11-21T01:05:48;15.93;;;6.60;;
72132;SDS011;60008;50.826;6.896;2023-11-21T01:08:35;12.70;;;6.05;;
72132;SDS011;60008;50.826;6.896;2023-11-21T01:11:21;12.80;;;6.73;;
72132;SDS011;60008;50.826;6.896;2023-11-21T01:14:06;23.48;;;7.40;;
72132;SDS011;60008;50.826;6.896;2023-11-21T01:16:53;15.48;;;7.10;;
72132;SDS011;60008;50.826;6.896;2023-11-21T01:19:39;14.90;;;6.97;;
72132;SDS011;60008;50.826;6.896;2023-11-21T01:22:24;13.95;;;6.55;;
72132;SDS011;60008;50.826;6.896;2023-11-21T01:25:11;12.67;;;6.30;;
72132;SDS011;60008;50.826;6.896;2023-11-21T01:27:56;14.32;;;7.10;;
72132;SDS011;60008;50.826;6.896;2023-11-21T01:30:41;18.83;;;6.55;;
72132;SDS011;60008;50.826;6.896;2023-11-21T01:33:26;17.30;;;6.93;;
72132;SDS011;60008;50.826;6.896;2023-11-21T01:36:11;18.02;;;7.05;;
72132;SDS011;60008;50.826;6.896;2023-11-21T01:38:56;15.73;;;7.33;;
72132;SDS011;60008;50.826;6.896;2023-11-21T01:41:43;17.65;;;7.13;;
72132;SDS011;60008;50.826;6.896;2023-11-21T01:44:29;15.13;;;7.55;;
72132;SDS011;60008;50.826;6.896;2023-11-21T01:47:14;18.80;;;8.15;;
72132;SDS011;60008;50.826;6.896;2023-11-21T01:50:00;16.80;;;8.35;;
72132;SDS011;60008;50.826;6.896;2023-11-21T01:52:46;16.43;;;7.83;;
72132;SDS011;60008;50.826;6.896;2023-11-21T01:55:31;17.48;;;8.25;;
72132;SDS011;60008;50.826;6.896;2023-11-21T01:58:18;16.05;;;7.88;;
72132;SDS011;60008;50.826;6.896;2023-11-21T02:01:03;20.05;;;8.90;;
72132;SDS011;60008;50.826;6.896;2023-11-21T02:03:48;22.45;;;9.48;;
72132;SDS011;60008;50.826;6.896;2023-11-21T02:06:33;16.37;;;8.30;;
72132;SDS011;60008;50.826;6.896;2023-11-21T02:09:22;18.98;;;8.50;;
72132;SDS011;60008;50.826;6.896;2023-11-21T02:12:09;20.20;;;8.68;;
72132;SDS011;60008;50.826;6.896;2023-11-21T02:14:55;21.00;;;8.88;;
72132;SDS011;60008;50.826;6.896;2023-11-21T02:17:41;23.90;;;9.57;;
72132;SDS011;60008;50.826;6.896;2023-11-21T02:20:28;18.13;;;9.23;;
72132;SDS011;60008;50.826;6.896;2023-11-21T02:23:14;21.98;;;9.38;;
72132;SDS011;60008;50.826;6.896;2023-11-21T02:25:59;20.08;;;9.38;;
72132;SDS011;60008;50.826;6.896;2023-11-21T02:28:49;21.63;;;10.07;;
72132;SDS011;60008;50.826;6.896;2023-11-21T02:31:34;23.67;;;10.38;;
72132;SDS011;60008;50.826;6.896;2023-11-21T02:34:19;20.67;;;9.80;;
72132;SDS011;60008;50.826;6.896;2023-11-21T02:37:05;21.65;;;10.13;;
72132;SDS011;60008;50.826;6.896;2023-11-21T02:39:51;23.33;;;11.30;;
72132;SDS011;60008;50.826;6.896;2023-11-21T02:42:35;22.65;;;10.10;;
72132;SDS011;60008;50.826;6.896;2023-11-21T02:45:20;23.50;;;10.18;;
72132;SDS011;60008;50.826;6.896;2023-11-21T02:48:06;17.83;;;8.93;;
72132;SDS011;60008;50.826;6.896;2023-11-21T02:50:52;19.90;;;8.85;;
72132;SDS011;60008;50.826;6.896;2023-11-21T02:53:38;22.52;;;9.95;;
72132;SDS011;60008;50.826;6.896;2023-11-21T02:56:23;24.48;;;10.90;;
72132;SDS011;60008;50.826;6.896;2023-11-21T02:59:08;22.05;;;10.20;;
72132;SDS011;60008;50.826;6.896;2023-11-21T03:01:53;24.63;;;9.97;;
72132;SDS011;60008;50.826;6.896;2023-11-21T03:04:40;20.40;;;9.60;;
72132;SDS011;60008;50.826;6.896;2023-11-21T03:07:25;21.88;;;9.55;;
72132;SDS011;60008;50.826;6.896;2023-11-21T03:10:10;18.02;;;8.10;;
72132;SDS011;60008;50.826;6.896;2023-11-21T03:12:56;22.25;;;9.32;;
72132;SDS011;60008;50.826;6.896;2023-11-21T03:15:41;19.63;;;8.63;;
72132;SDS011;60008;50.826;6.896;2023-11-21T03:18:27;20.75;;;8.40;;
72132;SDS011;60008;50.826;6.896;2023-11-21T03:21:13;16.92;;;7.70;;
72132;SDS011;60008;50.826;6.896;2023-11-21T03:23:58;15.45;;;6.28;;
72132;SDS011;60008;50.826;6.896;2023-11-21T03:26:45;20.13;;;7.18;;
72132;SDS011;60008;50.826;6.896;2023-11-21T03:29:31;20.50;;;7.13;;
72132;SDS011;60008;50.826;6.896;2023-11-21T03:32:16;18.73;;;7.57;;
72132;SDS011;60008;50.826;6.896;2023-11-21T03:35:01;20.35;;;7.72;;
72132;SDS011;60008;50.826;6.896;2023-11-21T03:37:47;18.88;;;7.68;;
72132;SDS011;60008;50.826;6.896;2023-11-21T03:40:32;18.48;;;8.85;;
72132;SDS011;60008;50.826;6.896;2023-11-21T03:43:18;21.23;;;8.73;;
72132;SDS011;60008;50.826;6.896;2023-11-21T03:46:03;21.58;;;8.98;;
72132;SDS011;60008;50.826;6.896;2023-11-21T03:48:49;26.52;;;9.90;;
72132;SDS011;60008;50.826;6.896;2023-11-21T03:51:34;30.27;;;11.15;;
72132;SDS011;60008;50.826;6.896;2023-11-21T03:54:19;26.30;;;10.20;;
72132;SDS011;60008;50.826;6.896;2023-11-21T03:57:04;21.50;;;9.40;;
72132;SDS011;60008;50.826;6.896;2023-11-21T03:59:49;27.25;;;11.05;;
72132;SDS011;60008;50.826;6.896;2023-11-21T04:02:34;27.45;;;10.65;;
72132;SDS011;60008;50.826;6.896;2023-11-21T04:05:20;32.13;;;11.30;;
72132;SDS011;60008;50.826;6.896;2023-11-21T04:08:09;28.00;;;10.63;;
72132;SDS011;60008;50.826;6.896;2023-11-21T04:10:54;30.30;;;11.13;;
72132;SDS011;60008;50.826;6.896;2023-11-21T04:13:40;24.15;;;10.90;;
72132;SDS011;60008;50.826;6.896;2023-11-21T04:16:25;29.20;;;11.30;;
72132;SDS011;60008;50.826;6.896;2023-11-21T04:19:10;27.33;;;10.82;;
72132;SDS011;60008;50.826;6.896;2023-11-21T04:21:56;24.30;;;10.57;;
72132;SDS011;60008;50.826;6.896;2023-11-21T04:24:41;29.00;;;10.57;;
72132;SDS011;60008;50.826;6.896;2023-11-21T04:27:26;25.50;;;10.07;;
72132;SDS011;60008;50.826;6.896;2023-11-21T04:30:11;27.02;;;9.75;;
72132;SDS011;60008;50.826;6.896;2023-11-21T04:32:57;27.42;;;9.82;;
72132;SDS011;60008;50.826;6.896;2023-11-21T04:35:42;26.95;;;10.30;;
72132;SDS011;60008;50.826;6.896;2023-11-21T04:38:27;24.63;;;9.83;;
72132;SDS011;60008;50.826;6.896;2023-11-21T04:41:12;27.33;;;10.45;;
72132;SDS011;60008;50.826;6.896;2023-11-21T04:43:57;26.83;;;10.48;;
72132;SDS011;60008;50.826;6.896;2023-11-21T04:46:45;24.20;;;10.13;;
72132;SDS011;60008;50.826;6.896;2023-11-21T04:49:30;25.58;;;10.40;;
72132;SDS011;60008;50.826;6.896;2023-11-21T04:52:15;26.13;;;10.53;;
72132;SDS011;60008;50.826;6.896;2023-11-21T04:55:01;24.42;;;10.50;;
72132;SDS011;60008;50.826;6.896;2023-11-21T04:57:46;22.92;;;10.07;;
72132;SDS011;60008;50.826;6.896;2023-11-21T05:00:32;27.60;;;10.23;;
72132;SDS011;60008;50.826;6.896;2023-11-21T05:03:17;27.13;;;10.77;;
72132;SDS011;60008;50.826;6.896;2023-11-21T05:06:02;26.40;;;9.83;;
72132;SDS011;60008;50.826;6.896;2023-11-21T05:08:50;23.27;;;9.07;;
72132;SDS011;60008;50.826;6.896;2023-11-21T05:11:35;25.98;;;10.02;;
72132;SDS011;60008;50.826;6.896;2023-11-21T05:14:20;26.23;;;9.88;;
72132;SDS011;60008;50.826;6.896;2023-11-21T05:17:05;23.70;;;9.30;;
72132;SDS011;60008;50.826;6.896;2023-11-21T05:19:50;22.43;;;9.43;;
72132;SDS011;60008;50.826;6.896;2023-11-21T05:22:36;22.45;;;9.57;;
72132;SDS011;60008;50.826;6.896;2023-11-21T05:25:21;25.88;;;9.48;;
72132;SDS011;60008;50.826;6.896;2023-11-21T05:28:06;25.60;;;9.75;;
72132;SDS011;60008;50.826;6.896;2023-11-21T05:30:51;23.35;;;9.23;;
72132;SDS011;60008;50.826;6.896;2023-11-21T05:33:54;22.20;;;8.57;;
72132;SDS011;60008;50.826;6.896;2023-11-21T05:36:39;23.25;;;9.18;;
72132;SDS011;60008;50.826;6.896;2023-11-21T05:39:24;26.25;;;8.57;;
72132;SDS011;60008;50.826;6.896;2023-11-21T05:42:09;28.58;;;9.18;;
72132;SDS011;60008;50.826;6.896;2023-11-21T05:44:55;21.63;;;9.38;;
72132;SDS011;60008;50.826;6.896;2023-11-21T05:47:44;21.27;;;8.97;;
72132;SDS011;60008;50.826;6.896;2023-11-21T05:50:31;24.85;;;9.60;;
72132;SDS011;60008;50.826;6.896;2023-11-21T05:53:17;21.95;;;9.38;;
72132;SDS011;60008;50.826;6.896;2023-11-21T05:56:02;23.60;;;9.48;;
72132;SDS011;60008;50.826;6.896;2023-11-21T05:58:48;26.63;;;9.82;;
72132;SDS011;60008;50.826;6.896;2023-11-21T06:01:33;24.23;;;9.57;;
72132;SDS011;60008;50.826;6.896;2023-11-21T06:04:19;25.70;;;9.63;;
72132;SDS011;60008;50.826;6.896;2023-11-21T06:07:08;25.17;;;9.27;;
72132;SDS011;60008;50.826;6.896;2023-11-21T06:09:55;23.98;;;9.48;;
72132;SDS011;60008;50.826;6.896;2023-11-21T06:12:40;24.63;;;9.15;;
72132;SDS011;60008;50.826;6.896;2023-11-21T06:15:27;30.70;;;9.77;;
72132;SDS011;60008;50.826;6.896;2023-11-21T06:18:12;33.38;;;9.40;;
72132;SDS011;60008;50.826;6.896;2023-11-21T06:20:59;26.73;;;9.70;;
72132;SDS011;60008;50.826;6.896;2023-11-21T06:23:45;26.58;;;9.68;;
72132;SDS011;60008;50.826;6.896;2023-11-21T06:26:30;22.75;;;9.38;;
72132;SDS011;60008;50.826;6.896;2023-11-21T06:29:16;26.47;;;10.10;;
72132;SDS011;60008;50.826;6.896;2023-11-21T06:32:01;26.15;;;10.13;;
72132;SDS011;60008;50.826;6.896;2023-11-21T06:34:49;25.33;;;10.30;;
72132;SDS011;60008;50.826;6.896;2023-11-21T06:37:34;23.90;;;9.52;;
72132;SDS011;60008;50.826;6.896;2023-11-21T06:40:20;29.30;;;11.18;;
72132;SDS011;60008;50.826;6.896;2023-11-21T06:43:05;26.97;;;10.53;;
72132;SDS011;60008;50.826;6.896;2023-11-21T06:45:51;25.30;;;10.15;;
72132;SDS011;60008;50.826;6.896;2023-11-21T06:48:36;31.15;;;10.70;;
72132;SDS011;60008;50.826;6.896;2023-11-21T06:51:23;24.48;;;10.40;;
72132;SDS011;60008;50.826;6.896;2023-11-21T06:54:08;31.00;;;10.18;;
72132;SDS011;60008;50.826;6.896;2023-11-21T06:56:53;29.57;;;9.97;;
72132;SDS011;60008;50.826;6.896;2023-11-21T06:59:39;32.80;;;10.85;;
72132;SDS011;60008;50.826;6.896;2023-11-21T07:02:24;25.35;;;9.38;;
72132;SDS011;60008;50.826;6.896;2023-11-21T07:05:09;26.67;;;9.65;;
72132;SDS011;60008;50.826;6.896;2023-11-21T07:07:54;22.58;;;9.23;;
72132;SDS011;60008;50.826;6.896;2023-11-21T07:10:39;25.03;;;8.87;;
72132;SDS011;60008;50.826;6.896;2023-11-21T07:13:24;27.38;;;9.38;;
72132;SDS011;60008;50.826;6.896;2023-11-21T07:16:10;26.90;;;9.85;;
72132;SDS011;60008;50.826;6.896;2023-11-21T07:18:55;29.05;;;10.18;;
72132;SDS011;60008;50.826;6.896;2023-11-21T07:21:40;26.05;;;9.88;;
72132;SDS011;60008;50.826;6.896;2023-11-21T07:24:26;27.60;;;9.73;;
72132;SDS011;60008;50.826;6.896;2023-11-21T07:27:11;27.75;;;9.80;;
72132;SDS011;60008;50.826;6.896;2023-11-21T07:29:56;28.17;;;9.82;;
72132;SDS011;60008;50.826;6.896;2023-11-21T07:32:42;26.60;;;9.75;;
72132;SDS011;60008;50.826;6.896;2023-11-21T07:35:27;28.52;;;10.40;;
72132;SDS011;60008;50.826;6.896;2023-11-21T07:38:12;25.30;;;10.23;;
72132;SDS011;60008;50.826;6.896;2023-11-21T07:40:58;28.42;;;10.52;;
72132;SDS011;60008;50.826;6.896;2023-11-21T07:43:43;28.73;;;10.02;;
72132;SDS011;60008;50.826;6.896;2023-11-21T07:46:29;25.25;;;10.10;;
72132;SDS011;60008;50.826;6.896;2023-11-21T07:49:13;31.73;;;9.93;;
72132;SDS011;60008;50.826;6.896;2023-11-21T07:52:01;35.50;;;10.03;;
72132;SDS011;60008;50.826;6.896;2023-11-21T07:54:46;35.63;;;10.93;;
72132;SDS011;60008;50.826;6.896;2023-11-21T07:57:31;33.95;;;10.23;;
72132;SDS011;60008;50.826;6.896;2023-11-21T08:00:17;25.65;;;10.13;;
72132;SDS011;60008;50.826;6.896;2023-11-21T08:03:02;28.08;;;9.90;;
72132;SDS011;60008;50.826;6.896;2023-11-21T08:05:48;25.17;;;9.87;;
72132;SDS011;60008;50.826;6.896;2023-11-21T08:08:33;30.08;;;10.40;;
72132;SDS011;60008;50.826;6.896;2023-11-21T08:11:18;31.42;;;10.93;;
72132;SDS011;60008;50.826;6.896;2023-11-21T08:14:06;26.27;;;9.77;;
72132;SDS011;60008;50.826;6.896;2023-11-21T08:16:51;29.83;;;10.25;;
72132;SDS011;60008;50.826;6.896;2023-11-21T08:19:36;25.97;;;10.03;;
72132;SDS011;60008;50.826;6.896;2023-11-21T08:22:21;31.40;;;10.68;;
72132;SDS011;60008;50.826;6.896;2023-11-21T08:25:08;32.42;;;10.60;;
72132;SDS011;60008;50.826;6.896;2023-11-21T08:27:54;28.73;;;10.25;;
72132;SDS011;60008;50.826;6.896;2023-11-21T08:30:39;27.40;;;10.02;;
72132;SDS011;60008;50.826;6.896;2023-11-21T08:33:26;33.00;;;10.10;;
72132;SDS011;60008;50.826;6.896;2023-11-21T08:36:11;29.40;;;10.75;;
72132;SDS011;60008;50.826;6.896;2023-11-21T08:38:57;33.10;;;9.85;;
72132;SDS011;60008;50.826;6.896;2023-11-21T08:41:42;24.92;;;9.98;;
72132;SDS011;60008;50.826;6.896;2023-11-21T08:44:27;29.20;;;10.50;;
72132;SDS011;60008;50.826;6.896;2023-11-21T08:47:12;27.17;;;10.13;;
72132;SDS011;60008;50.826;6.896;2023-11-21T08:49:57;28.00;;;10.50;;
72132;SDS011;60008;50.826;6.896;2023-11-21T08:52:44;30.45;;;10.88;;
72132;SDS011;60008;50.826;6.896;2023-11-21T08:55:30;25.83;;;10.27;;
72132;SDS011;60008;50.826;6.896;2023-11-21T08:58:15;27.48;;;11.02;;
72132;SDS011;60008;50.826;6.896;2023-11-21T09:01:00;30.13;;;11.17;;
72132;SDS011;60008;50.826;6.896;2023-11-21T09:03:45;30.80;;;10.82;;
72132;SDS011;60008;50.826;6.896;2023-11-21T09:06:30;25.98;;;10.70;;
72132;SDS011;60008;50.826;6.896;2023-11-21T09:09:16;27.00;;;10.15;;
72132;SDS011;60008;50.826;6.896;2023-11-21T09:12:01;30.45;;;10.90;;
72132;SDS011;60008;50.826;6.896;2023-11-21T09:14:47;26.27;;;10.70;;
72132;SDS011;60008;50.826;6.896;2023-11-21T09:17:32;27.33;;;10.35;;
72132;SDS011;60008;50.826;6.896;2023-11-21T09:20:20;31.80;;;11.80;;
72132;SDS011;60008;50.826;6.896;2023-11-21T09:23:07;30.88;;;11.63;;
72132;SDS011;60008;50.826;6.896;2023-11-21T09:25:52;33.15;;;11.30;;
72132;SDS011;60008;50.826;6.896;2023-11-21T09:28:42;37.97;;;11.70;;
72132;SDS011;60008;50.826;6.896;2023-11-21T09:31:31;29.05;;;11.52;;
72132;SDS011;60008;50.826;6.896;2023-11-21T09:34:18;29.05;;;11.68;;
72132;SDS011;60008;50.826;6.896;2023-11-21T09:37:03;39.63;;;11.70;;
72132;SDS011;60008;50.826;6.896;2023-11-21T09:39:50;33.42;;;11.32;;
72132;SDS011;60008;50.826;6.896;2023-11-21T09:42:36;38.37;;;11.53;;
72132;SDS011;60008;50.826;6.896;2023-11-21T09:45:25;31.00;;;11.48;;
72132;SDS011;60008;50.826;6.896;2023-11-21T09:48:12;37.72;;;11.88;;
72132;SDS011;60008;50.826;6.896;2023-11-21T09:50:57;32.83;;;10.77;;
72132;SDS011;60008;50.826;6.896;2023-11-21T09:53:44;31.65;;;10.35;;
72132;SDS011;60008;50.826;6.896;2023-11-21T09:56:31;28.20;;;10.20;;
72132;SDS011;60008;50.826;6.896;2023-11-21T09:59:17;27.10;;;10.07;;
72132;SDS011;60008;50.826;6.896;2023-11-21T10:02:02;31.65;;;10.38;;
72132;SDS011;60008;50.826;6.896;2023-11-21T10:04:48;28.73;;;10.32;;
72132;SDS011;60008;50.826;6.896;2023-11-21T10:07:33;27.58;;;10.32;;
72132;SDS011;60008;50.826;6.896;2023-11-21T10:10:19;26.20;;;10.60;;
72132;SDS011;60008;50.826;6.896;2023-11-21T10:13:06;30.92;;;10.50;;
72132;SDS011;60008;50.826;6.896;2023-11-21T10:15:52;27.13;;;9.75;;
72132;SDS011;60008;50.826;6.896;2023-11-21T10:18:38;34.72;;;10.93;;
72132;SDS011;60008;50.826;6.896;2023-11-21T10:21:25;30.15;;;10.75;;
72132;SDS011;60008;50.826;6.896;2023-11-21T10:24:10;29.97;;;10.67;;
72132;SDS011;60008;50.826;6.896;2023-11-21T10:26:57;30.02;;;10.98;;
72132;SDS011;60008;50.826;6.896;2023-11-21T10:29:42;29.83;;;11.32;;
72132;SDS011;60008;50.826;6.896;2023-11-21T10:32:28;32.45;;;10.38;;
72132;SDS011;60008;50.826;6.896;2023-11-21T10:35:13;26.23;;;9.90;;
72132;SDS011;60008;50.826;6.896;2023-11-21T10:38:01;28.07;;;9.73;;
72132;SDS011;60008;50.826;6.896;2023-11-21T10:40:46;28.88;;;9.98;;
72132;SDS011;60008;50.826;6.896;2023-11-21T10:43:32;30.88;;;10.07;;
72132;SDS011;60008;50.826;6.896;2023-11-21T10:46:19;31.58;;;10.63;;
72132;SDS011;60008;50.826;6.896;2023-11-21T10:49:04;30.35;;;10.07;;
72132;SDS011;60008;50.826;6.896;2023-11-21T10:51:50;32.23;;;10.53;;
72132;SDS011;60008;50.826;6.896;2023-11-21T10:54:37;32.00;;;10.90;;
72132;SDS011;60008;50.826;6.896;2023-11-21T10:57:22;28.75;;;11.27;;
72132;SDS011;60008;50.826;6.896;2023-11-21T11:00:08;30.63;;;10.32;;
72132;SDS011;60008;50.826;6.896;2023-11-21T11:02:58;27.88;;;10.68;;
72132;SDS011;60008;50.826;6.896;2023-11-21T11:05:44;33.37;;;11.37;;
72132;SDS011;60008;50.826;6.896;2023-11-21T11:08:47;33.67;;;11.52;;
72132;SDS011;60008;50.826;6.896;2023-11-21T11:11:33;29.02;;;11.07;;
72132;SDS011;60008;50.826;6.896;2023-11-21T11:14:17;34.28;;;11.88;;
72132;SDS011;60008;50.826;6.896;2023-11-21T11:17:04;42.67;;;12.05;;
72132;SDS011;60008;50.826;6.896;2023-11-21T11:19:53;41.17;;;11.33;;
72132;SDS011;60008;50.826;6.896;2023-11-21T11:22:50;32.58;;;11.48;;
72132;SDS011;60008;50.826;6.896;2023-11-21T11:28:35;37.28;;;11.88;;
72132;SDS011;60008;50.826;6.896;2023-11-21T11:34:41;31.90;;;10.83;;
72132;SDS011;60008;50.826;6.896;2023-11-21T11:37:31;34.08;;;10.88;;
72132;SDS011;60008;50.826;6.896;2023-11-21T11:40:16;37.70;;;11.68;;
72132;SDS011;60008;50.826;6.896;2023-11-21T11:43:01;36.60;;;11.85;;
72132;SDS011;60008;50.826;6.896;2023-11-21T11:45:49;33.63;;;11.57;;
72132;SDS011;60008;50.826;6.896;2023-11-21T11:48:40;38.93;;;12.10;;
72132;SDS011;60008;50.826;6.896;2023-11-21T11:51:25;37.15;;;11.82;;
72132;SDS011;60008;50.826;6.896;2023-11-21T11:54:10;39.97;;;12.38;;
72132;SDS011;60008;50.826;6.896;2023-11-21T11:56:55;41.30;;;12.93;;
72132;SDS011;60008;50.826;6.896;2023-11-21T12:03:11;37.90;;;10.93;;
72132;SDS011;60008;50.826;6.896;2023-11-21T12:05:58;30.70;;;10.13;;
72132;SDS011;60008;50.826;6.896;2023-11-21T12:08:43;34.83;;;10.52;;
72132;SDS011;60008;50.826;6.896;2023-11-21T12:11:30;33.30;;;10.85;;
72132;SDS011;60008;50.826;6.896;2023-11-21T12:14:17;29.45;;;9.88;;
72132;SDS011;60008;50.826;6.896;2023-11-21T12:17:02;36.00;;;9.93;;
72132;SDS011;60008;50.826;6.896;2023-11-21T12:19:49;31.55;;;8.65;;
72132;SDS011;60008;50.826;6.896;2023-11-21T12:22:37;22.08;;;6.40;;
72132;SDS011;60008;50.826;6.896;2023-11-21T12:25:24;21.15;;;6.63;;
72132;SDS011;60008;50.826;6.896;2023-11-21T12:28:13;17.10;;;5.97;;
72132;SDS011;60008;50.826;6.896;2023-11-21T12:30:59;18.00;;;5.77;;
72132;SDS011;60008;50.826;6.896;2023-11-21T12:33:58;21.80;;;6.22;;
72132;SDS011;60008;50.826;6.896;2023-11-21T12:36:43;19.20;;;6.63;;
72132;SDS011;60008;50.826;6.896;2023-11-21T12:39:30;22.00;;;6.68;;
72132;SDS011;60008;50.826;6.896;2023-11-21T12:42:15;17.35;;;5.97;;
72132;SDS011;60008;50.826;6.896;2023-11-21T12:45:07;15.73;;;5.87;;
72132;SDS011;60008;50.826;6.896;2023-11-21T12:48:10;20.45;;;6.43;;
72132;SDS011;60008;50.826;6.896;2023-11-21T12:50:56;21.45;;;6.43;;
72132;SDS011;60008;50.826;6.896;2023-11-21T12:53:44;23.30;;;6.80;;
72132;SDS011;60008;50.826;6.896;2023-11-21T12:56:29;21.10;;;7.55;;
72132;SDS011;60008;50.826;6.896;2023-11-21T12:59:14;27.57;;;8.60;;
72132;SDS011;60008;50.826;6.896;2023-11-21T13:02:01;21.73;;;7.00;;
72132;SDS011;60008;50.826;6.896;2023-11-21T13:04:53;26.65;;;7.57;;
72132;SDS011;60008;50.826;6.896;2023-11-21T13:07:42;24.95;;;8.00;;
72132;SDS011;60008;50.826;6.896;2023-11-21T13:10:32;28.70;;;7.50;;
72132;SDS011;60008;50.826;6.896;2023-11-21T13:13:20;26.97;;;7.83;;
72132;SDS011;60008;50.826;6.896;2023-11-21T13:16:08;26.92;;;7.97;;
72132;SDS011;60008;50.826;6.896;2023-11-21T13:18:54;21.42;;;6.88;;
72132;SDS011;60008;50.826;6.896;2023-11-21T13:21:39;19.70;;;6.85;;
72132;SDS011;60008;50.826;6.896;2023-11-21T13:24:25;22.02;;;6.60;;
72132;SDS011;60008;50.826;6.896;2023-11-21T13:27:11;21.33;;;6.77;;
72132;SDS011;60008;50.826;6.896;2023-11-21T13:29:56;24.80;;;6.85;;
72132;SDS011;60008;50.826;6.896;2023-11-21T13:32:42;22.85;;;6.10;;
72132;SDS011;60008;50.826;6.896;2023-11-21T13:35:28;19.08;;;5.68;;
72132;SDS011;60008;50.826;6.896;2023-11-21T13:38:26;21.38;;;5.95;;
72132;SDS011;60008;50.826;6.896;2023-11-21T13:41:17;20.43;;;5.20;;
72132;SDS011;60008;50.826;6.896;2023-11-21T13:44:03;19.20;;;5.40;;
72132;SDS011;60008;50.826;6.896;2023-11-21T13:46:59;17.08;;;5.40;;
72132;SDS011;60008;50.826;6.896;2023-11-21T13:49:44;18.05;;;5.13;;
72132;SDS011;60008;50.826;6.896;2023-11-21T13:52:29;20.23;;;5.72;;
72132;SDS011;60008;50.826;6.896;2023-11-21T13:55:17;18.47;;;5.23;;
72132;SDS011;60008;50.826;6.896;2023-11-21T13:58:03;16.27;;;4.95;;
72132;SDS011;60008;50.826;6.896;2023-11-21T14:00:49;19.95;;;4.80;;
72132;SDS011;60008;50.826;6.896;2023-11-21T14:03:41;21.05;;;5.50;;
72132;SDS011;60008;50.826;6.896;2023-11-21T14:06:36;21.77;;;5.72;;
72132;SDS011;60008;50.826;6.896;2023-11-21T14:09:32;12.90;;;5.10;;
72132;SDS011;60008;50.826;6.896;2023-11-21T14:12:20;26.02;;;5.78;;
72132;SDS011;60008;50.826;6.896;2023-11-21T14:15:06;19.38;;;6.20;;
72132;SDS011;60008;50.826;6.896;2023-11-21T14:17:55;14.80;;;5.63;;
72132;SDS011;60008;50.826;6.896;2023-11-21T14:20:40;21.40;;;6.95;;
72132;SDS011;60008;50.826;6.896;2023-11-21T14:23:26;22.83;;;7.47;;
72132;SDS011;60008;50.826;6.896;2023-11-21T14:26:11;15.20;;;5.38;;
72132;SDS011;60008;50.826;6.896;2023-11-21T14:29:01;20.33;;;5.93;;
72132;SDS011;60008;50.826;6.896;2023-11-21T14:31:47;20.58;;;6.88;;
72132;SDS011;60008;50.826;6.896;2023-11-21T14:34:33;22.55;;;6.45;;
72132;SDS011;60008;50.826;6.896;2023-11-21T14:37:18;22.90;;;5.97;;
72132;SDS011;60008;50.826;6.896;2023-11-21T14:40:04;22.02;;;6.50;;
72132;SDS011;60008;50.826;6.896;2023-11-21T14:42:52;20.63;;;6.18;;
72132;SDS011;60008;50.826;6.896;2023-11-21T14:45:39;25.23;;;6.28;;
72132;SDS011;60008;50.826;6.896;2023-11-21T14:48:24;21.02;;;5.97;;
72132;SDS011;60008;50.826;6.896;2023-11-21T14:51:30;21.80;;;6.23;;
72132;SDS011;60008;50.826;6.896;2023-11-21T14:54:33;18.85;;;6.82;;
72132;SDS011;60008;50.826;6.896;2023-11-21T14:57:26;18.13;;;6.78;;
72132;SDS011;60008;50.826;6.896;2023-11-21T15:00:11;20.25;;;6.13;;
72132;SDS011;60008;50.826;6.896;2023-11-21T15:03:16;19.95;;;6.32;;
72132;SDS011;60008;50.826;6.896;2023-11-21T15:06:17;19.67;;;6.53;;
72132;SDS011;60008;50.826;6.896;2023-11-21T15:09:11;25.73;;;7.18;;
72132;SDS011;60008;50.826;6.896;2023-11-21T15:11:56;23.40;;;6.70;;
72132;SDS011;60008;50.826;6.896;2023-11-21T15:14:49;22.30;;;6.63;;
72132;SDS011;60008;50.826;6.896;2023-11-21T15:17:39;22.40;;;7.28;;
72132;SDS011;60008;50.826;6.896;2023-11-21T15:20:27;20.97;;;7.43;;
72132;SDS011;60008;50.826;6.896;2023-11-21T15:23:12;21.67;;;7.18;;
72132;SDS011;60008;50.826;6.896;2023-11-21T15:25:58;22.05;;;9.35;;
72132;SDS011;60008;50.826;6.896;2023-11-21T15:28:43;22.05;;;7.72;;
72132;SDS011;60008;50.826;6.896;2023-11-21T15:31:28;22.20;;;7.53;;
72132;SDS011;60008;50.826;6.896;2023-11-21T15:34:16;18.47;;;7.30;;
72132;SDS011;60008;50.826;6.896;2023-11-21T15:37:02;18.98;;;7.68;;
72132;SDS011;60008;50.826;6.896;2023-11-21T15:39:48;20.08;;;7.85;;
72132;SDS011;60008;50.826;6.896;2023-11-21T15:42:33;29.02;;;9.90;;
72132;SDS011;60008;50.826;6.896;2023-11-21T15:45:19;25.65;;;10.50;;
72132;SDS011;60008;50.826;6.896;2023-11-21T15:48:06;23.63;;;8.90;;
72132;SDS011;60008;50.826;6.896;2023-11-21T15:50:51;25.15;;;8.10;;
72132;SDS011;60008;50.826;6.896;2023-11-21T15:53:42;24.30;;;7.95;;
72132;SDS011;60008;50.826;6.896;2023-11-21T15:56:27;21.70;;;7.55;;
72132;SDS011;60008;50.826;6.896;2023-11-21T15:59:12;25.60;;;7.85;;
72132;SDS011;60008;50.826;6.896;2023-11-21T16:01:59;22.90;;;8.47;;
72132;SDS011;60008;50.826;6.896;2023-11-21T16:04:44;23.95;;;8.02;;
72132;SDS011;60008;50.826;6.896;2023-11-21T16:07:29;23.70;;;7.68;;
72132;SDS011;60008;50.826;6.896;2023-11-21T16:10:14;25.00;;;8.23;;
72132;SDS011;60008;50.826;6.896;2023-11-21T16:13:00;24.98;;;9.15;;
72132;SDS011;60008;50.826;6.896;2023-11-21T16:15:45;32.63;;;9.50;;
72132;SDS011;60008;50.826;6.896;2023-11-21T16:18:33;25.35;;;8.85;;
72132;SDS011;60008;50.826;6.896;2023-11-21T16:21:18;27.13;;;8.98;;
72132;SDS011;60008;50.826;6.896;2023-11-21T16:24:03;29.58;;;10.13;;
72132;SDS011;60008;50.826;6.896;2023-11-21T16:26:49;23.23;;;7.72;;
72132;SDS011;60008;50.826;6.896;2023-11-21T16:29:34;25.60;;;8.17;;
72132;SDS011;60008;50.826;6.896;2023-11-21T16:32:19;23.58;;;8.90;;
72132;SDS011;60008;50.826;6.896;2023-11-21T16:35:04;23.45;;;8.45;;